Time;durP1;ratioP1;P1;durP2;ratioP2;P2;SDS_P1;SDS_P2;PMS_P1;PMS_P2;Temp;Humidity;BMP_temperature;BMP_pressure;BME280_temperature;BME280_humidity;BME280_pressure;Samples;Min_cycle;Max_cycle;Signal;HPM_P1;HPM_P2
2022/10/12 00:00:12;;;;;;;;;42.00;36.33;;;;;;;;5018520;28;45235;-70
2022/10/12 00:02:37;;;;;;;;;42.33;34.33;;;;;;;;5018734;28;45515;-70
2022/10/12 00:05:02;;;;;;;;;44.33;36.00;;;;;;;;5018222;28;45560;-70
2022/10/12 00:07:27;;;;;;;;;36.00;32.33;;;;;;;;5018139;28;45501;-70
2022/10/12 00:09:53;;;;;;;;;43.00;34.00;;;;;;;;5018400;28;45337;-70
2022/10/12 00:12:18;;;;;;;;;40.67;33.00;;;;;;;;5018453;28;45468;-69
2022/10/12 00:14:43;;;;;;;;;46.00;38.00;;;;;;;;5018298;28;46250;-70
2022/10/12 00:17:08;;;;;;;;;47.00;37.33;;;;;;;;5017952;28;45213;-70
2022/10/12 00:19:33;;;;;;;;;41.00;35.00;;;;;;;;5018276;28;45191;-70
2022/10/12 00:21:59;;;;;;;;;40.00;36.00;;;;;;;;5018438;28;45210;-70
2022/10/12 00:24:24;;;;;;;;;38.00;32.33;;;;;;;;5017934;28;45999;-70
2022/10/12 00:26:50;;;;;;;;;40.00;34.33;;;;;;;;5018046;28;45387;-70
2022/10/12 00:29:15;;;;;;;;;38.67;32.33;;;;;;;;5018027;28;45446;-70
2022/10/12 00:31:40;;;;;;;;;38.33;33.33;;;;;;;;5018095;28;45394;-70
2022/10/12 00:34:05;;;;;;;;;45.67;38.00;;;;;;;;5017827;28;45282;-70
2022/10/12 00:36:34;;;;;;;;;38.33;34.00;;;;;;;;5017942;28;45351;-70
2022/10/12 00:39:00;;;;;;;;;42.00;32.67;;;;;;;;5018004;28;45512;-70
2022/10/12 00:41:27;;;;;;;;;38.67;32.00;;;;;;;;5017977;28;45234;-70
2022/10/12 00:43:53;;;;;;;;;41.00;34.33;;;;;;;;5017783;28;45511;-69
2022/10/12 00:46:38;;;;;;;;;42.00;35.00;;;;;;;;5017566;28;45215;-70
2022/10/12 00:49:06;;;;;;;;;41.33;34.00;;;;;;;;5017729;28;45263;-70
2022/10/12 00:51:32;;;;;;;;;39.00;34.00;;;;;;;;5017890;28;45440;-70
2022/10/12 00:54:00;;;;;;;;;34.33;32.67;;;;;;;;5016749;28;45317;-70
2022/10/12 00:56:26;;;;;;;;;41.33;32.00;;;;;;;;5017577;28;45246;-70
2022/10/12 00:58:53;;;;;;;;;39.67;35.00;;;;;;;;5016302;28;45324;-68
2022/10/12 01:01:20;;;;;;;;;35.67;34.00;;;;;;;;5010421;28;45365;-67
2022/10/12 01:03:46;;;;;;;;;37.00;32.67;;;;;;;;5000847;28;46461;-68
2022/10/12 01:06:11;;;;;;;;;45.33;35.00;;;;;;;;5017312;28;45668;-68
2022/10/12 01:08:37;;;;;;;;;41.33;35.00;;;;;;;;5016862;28;45337;-69
2022/10/12 01:11:02;;;;;;;;;42.00;35.33;;;;;;;;5016581;28;45496;-70
2022/10/12 01:13:28;;;;;;;;;44.00;37.00;;;;;;;;5015275;28;46504;-70
2022/10/12 01:15:58;;;;;;;;;44.33;33.33;;;;;;;;5017114;28;45441;-70
2022/10/12 01:18:32;;;;;;;;;36.67;32.33;;;;;;;;5017162;28;45503;-70
2022/10/12 01:21:09;;;;;;;;;32.67;29.00;;;;;;;;5017774;28;45283;-71
2022/10/12 01:23:40;;;;;;;;;44.33;34.67;;;;;;;;5016732;28;46148;-70
2022/10/12 01:26:35;;;;;;;;;33.67;29.00;;;;;;;;5017081;28;45446;-70
2022/10/12 01:29:18;;;;;;;;;37.33;32.00;;;;;;;;5014628;28;45385;-70
2022/10/12 01:31:43;;;;;;;;;37.00;33.00;;;;;;;;5012882;28;45879;-70
2022/10/12 01:34:15;;;;;;;;;37.67;29.00;;;;;;;;5014881;28;46020;-70
2022/10/12 01:36:43;;;;;;;;;34.33;33.33;;;;;;;;5014908;28;45484;-70
2022/10/12 01:39:17;;;;;;;;;43.33;35.00;;;;;;;;5014856;28;45372;-71
2022/10/12 01:41:45;;;;;;;;;36.67;31.67;;;;;;;;5015133;28;45353;-70
2022/10/12 01:44:10;;;;;;;;;41.00;34.33;;;;;;;;5014689;28;45438;-71
2022/10/12 01:46:38;;;;;;;;;39.33;34.67;;;;;;;;5013531;28;45566;-70
2022/10/12 01:49:03;;;;;;;;;39.67;35.00;;;;;;;;5014612;28;45387;-69
2022/10/12 01:51:44;;;;;;;;;37.00;33.00;;;;;;;;5014786;28;45536;-70
2022/10/12 01:54:16;;;;;;;;;34.67;32.33;;;;;;;;5014299;28;45520;-69
2022/10/12 01:56:46;;;;;;;;;35.00;33.00;;;;;;;;5014744;28;45358;-70
2022/10/12 01:59:19;;;;;;;;;28.00;28.00;;;;;;;;5014659;28;45411;-69
2022/10/12 02:01:46;;;;;;;;;44.33;34.00;;;;;;;;5013690;28;45582;-70
2022/10/12 02:04:20;;;;;;;;;43.00;33.00;;;;;;;;5015565;28;46308;-69
2022/10/12 02:06:48;;;;;;;;;40.33;30.33;;;;;;;;5020171;28;45345;-70
2022/10/12 02:09:19;;;;;;;;;36.00;34.33;;;;;;;;5019721;28;45459;-69
2022/10/12 02:11:46;;;;;;;;;38.67;32.67;;;;;;;;5020228;28;45426;-70
2022/10/12 02:14:16;;;;;;;;;46.67;36.00;;;;;;;;5020108;28;46138;-70
2022/10/12 02:16:44;;;;;;;;;33.67;32.67;;;;;;;;5018834;28;45234;-70
2022/10/12 02:19:12;;;;;;;;;47.00;35.67;;;;;;;;5019760;28;45316;-70
2022/10/12 02:21:38;;;;;;;;;34.33;32.33;;;;;;;;5020391;28;45273;-70
2022/10/12 02:24:05;;;;;;;;;44.67;36.00;;;;;;;;5021564;28;45955;-69
2022/10/12 02:26:32;;;;;;;;;41.33;35.33;;;;;;;;5028400;28;45367;-70
2022/10/12 02:29:00;;;;;;;;;40.67;36.33;;;;;;;;5019480;28;45405;-70
2022/10/12 02:31:36;;;;;;;;;51.67;42.00;;;;;;;;5019916;28;45570;-70
2022/10/12 02:34:10;;;;;;;;;37.67;33.33;;;;;;;;5020281;28;46344;-69
2022/10/12 02:36:39;;;;;;;;;37.33;33.00;;;;;;;;5025554;28;45452;-70
2022/10/12 02:39:06;;;;;;;;;34.00;30.67;;;;;;;;5039613;28;45840;-70
2022/10/12 02:41:37;;;;;;;;;38.67;33.00;;;;;;;;5039835;28;45223;-69
2022/10/12 02:44:05;;;;;;;;;44.33;35.33;;;;;;;;5038465;28;46395;-69
2022/10/12 02:46:32;;;;;;;;;35.00;31.67;;;;;;;;5019106;28;45369;-69
2022/10/12 02:48:58;;;;;;;;;35.33;34.00;;;;;;;;5019347;28;45499;-69
2022/10/12 02:51:23;;;;;;;;;38.33;32.67;;;;;;;;5018583;28;45485;-69
2022/10/12 02:53:49;;;;;;;;;40.33;35.33;;;;;;;;5019361;28;46193;-69
2022/10/12 02:56:15;;;;;;;;;40.67;33.00;;;;;;;;5019435;28;45372;-70
2022/10/12 02:58:42;;;;;;;;;35.67;32.67;;;;;;;;5019498;28;45473;-69
2022/10/12 03:01:07;;;;;;;;;41.33;31.67;;;;;;;;5019540;28;45330;-70
2022/10/12 03:03:32;;;;;;;;;44.33;35.67;;;;;;;;5018978;28;46437;-69
2022/10/12 03:05:57;;;;;;;;;41.33;33.67;;;;;;;;5019249;28;45293;-69
2022/10/12 03:08:23;;;;;;;;;45.00;36.00;;;;;;;;5018015;28;45496;-70
2022/10/12 03:10:48;;;;;;;;;38.00;33.33;;;;;;;;5019652;28;45273;-69
2022/10/12 03:13:13;;;;;;;;;41.33;35.67;;;;;;;;5019299;28;45454;-69
2022/10/12 03:15:38;;;;;;;;;37.33;33.00;;;;;;;;5018519;28;45395;-69
2022/10/12 03:18:04;;;;;;;;;40.33;36.33;;;;;;;;5018937;28;45417;-69
2022/10/12 03:20:29;;;;;;;;;31.67;24.67;;;;;;;;5019427;28;45262;-69
2022/10/12 03:22:54;;;;;;;;;44.67;34.67;;;;;;;;5018802;28;46461;-70
2022/10/12 03:25:19;;;;;;;;;40.33;33.33;;;;;;;;5017487;28;45222;-70
2022/10/12 03:27:44;;;;;;;;;36.67;33.00;;;;;;;;5019059;28;45486;-70
2022/10/12 03:30:10;;;;;;;;;44.33;36.67;;;;;;;;5018806;28;45574;-70
2022/10/12 03:32:36;;;;;;;;;43.00;35.33;;;;;;;;5018757;28;45349;-70
2022/10/12 03:35:01;;;;;;;;;38.33;33.67;;;;;;;;5018494;28;45439;-70
2022/10/12 03:37:26;;;;;;;;;60.67;48.67;;;;;;;;5018957;28;45337;-69
2022/10/12 03:39:51;;;;;;;;;43.67;36.33;;;;;;;;5019055;28;45361;-70
2022/10/12 03:42:16;;;;;;;;;43.67;39.00;;;;;;;;5017496;28;45338;-70
2022/10/12 03:44:42;;;;;;;;;61.33;48.67;;;;;;;;5018234;28;45579;-70
2022/10/12 03:47:07;;;;;;;;;49.67;42.00;;;;;;;;5018836;28;45641;-70
2022/10/12 03:49:32;;;;;;;;;49.00;38.33;;;;;;;;5018827;28;45423;-69
2022/10/12 03:51:57;;;;;;;;;38.00;34.67;;;;;;;;5018465;28;46306;-69
2022/10/12 03:54:22;;;;;;;;;44.67;36.67;;;;;;;;5018754;28;45441;-69
2022/10/12 03:56:48;;;;;;;;;52.67;37.33;;;;;;;;5018630;28;45337;-69
2022/10/12 03:59:13;;;;;;;;;50.00;39.00;;;;;;;;5017169;28;45491;-69
2022/10/12 04:01:38;;;;;;;;;47.00;37.33;;;;;;;;5018672;28;45595;-69
2022/10/12 04:04:03;;;;;;;;;42.67;36.67;;;;;;;;5018163;28;45503;-69
2022/10/12 04:06:28;;;;;;;;;20.00;11.33;;;;;;;;5018552;28;45347;-69
2022/10/12 04:08:54;;;;;;;;;45.33;36.33;;;;;;;;5018648;28;45531;-69
2022/10/12 04:11:19;;;;;;;;;40.67;37.00;;;;;;;;5017864;28;46674;-69
2022/10/12 04:13:44;;;;;;;;;48.67;37.00;;;;;;;;5017173;28;45332;-69
2022/10/12 04:16:09;;;;;;;;;40.00;37.33;;;;;;;;5018151;28;45309;-69
2022/10/12 04:18:35;;;;;;;;;48.33;37.00;;;;;;;;5018077;28;45137;-69
2022/10/12 04:21:01;;;;;;;;;36.00;33.67;;;;;;;;5018088;28;45546;-70
2022/10/12 04:23:26;;;;;;;;;41.33;34.00;;;;;;;;5018011;28;45338;-69
2022/10/12 04:25:51;;;;;;;;;44.33;36.67;;;;;;;;5017900;28;45439;-69
2022/10/12 04:28:17;;;;;;;;;44.33;37.33;;;;;;;;5017010;28;45215;-70
2022/10/12 04:30:43;;;;;;;;;45.00;37.33;;;;;;;;5017809;28;47185;-69
2022/10/12 04:33:08;;;;;;;;;45.33;37.33;;;;;;;;5016789;28;45249;-69
2022/10/12 04:35:33;;;;;;;;;37.33;32.33;;;;;;;;5017822;28;45327;-69
2022/10/12 04:37:58;;;;;;;;;41.67;33.33;;;;;;;;5018196;28;45334;-69
2022/10/12 04:40:24;;;;;;;;;35.33;29.00;;;;;;;;5017330;28;47331;-69
2022/10/12 04:42:49;;;;;;;;;35.67;30.67;;;;;;;;5017868;28;45402;-69
2022/10/12 04:45:14;;;;;;;;;47.67;36.00;;;;;;;;5017925;28;45477;-69
2022/10/12 04:47:39;;;;;;;;;44.33;34.33;;;;;;;;5016712;28;45338;-69
2022/10/12 04:50:05;;;;;;;;;42.33;34.00;;;;;;;;5017447;28;46380;-69
2022/10/12 04:52:30;;;;;;;;;45.00;39.33;;;;;;;;5017775;28;45508;-69
2022/10/12 04:54:55;;;;;;;;;42.67;34.67;;;;;;;;5017823;28;45212;-69
2022/10/12 04:57:21;;;;;;;;;44.67;35.00;;;;;;;;5017771;28;45444;-69
2022/10/12 04:59:46;;;;;;;;;44.33;37.00;;;;;;;;5017505;28;45297;-69
2022/10/12 05:02:11;;;;;;;;;50.00;36.00;;;;;;;;5017538;28;45439;-69
2022/10/12 05:04:36;;;;;;;;;36.67;32.00;;;;;;;;5016203;28;45563;-69
2022/10/12 05:07:01;;;;;;;;;45.00;35.00;;;;;;;;5017672;28;45472;-69
2022/10/12 05:09:27;;;;;;;;;38.67;33.33;;;;;;;;5017061;28;46380;-69
2022/10/12 05:11:52;;;;;;;;;36.67;32.00;;;;;;;;5017603;28;45761;-70
2022/10/12 05:14:17;;;;;;;;;32.33;28.33;;;;;;;;5017498;28;45381;-69
2022/10/12 05:16:42;;;;;;;;;39.67;33.33;;;;;;;;5017377;28;45487;-70
2022/10/12 05:19:08;;;;;;;;;32.00;30.67;;;;;;;;5015921;28;46051;-69
2022/10/12 05:21:33;;;;;;;;;44.33;34.67;;;;;;;;5017091;28;45427;-69
2022/10/12 05:23:58;;;;;;;;;39.67;36.67;;;;;;;;5017366;28;45356;-69
2022/10/12 05:26:23;;;;;;;;;40.00;33.33;;;;;;;;5016845;28;45324;-69
2022/10/12 05:28:49;;;;;;;;;36.00;30.00;;;;;;;;5015277;28;46064;-69
2022/10/12 05:31:14;;;;;;;;;37.33;33.67;;;;;;;;5016628;28;45432;-69
2022/10/12 05:33:39;;;;;;;;;40.00;34.00;;;;;;;;5016779;28;45646;-69
2022/10/12 05:36:05;;;;;;;;;47.33;36.33;;;;;;;;5017191;28;45224;-68
2022/10/12 05:38:30;;;;;;;;;37.33;33.67;;;;;;;;5017144;28;45458;-69
2022/10/12 05:40:55;;;;;;;;;39.67;33.67;;;;;;;;5020554;28;45309;-70
2022/10/12 05:43:20;;;;;;;;;36.67;32.33;;;;;;;;5020859;28;45433;-69
2022/10/12 05:45:45;;;;;;;;;52.00;41.33;;;;;;;;5019829;28;45538;-69
2022/10/12 05:48:11;;;;;;;;;42.67;38.33;;;;;;;;5020386;28;45373;-69
2022/10/12 05:50:36;;;;;;;;;44.00;37.00;;;;;;;;5019760;28;45427;-70
2022/10/12 05:53:01;;;;;;;;;41.67;36.00;;;;;;;;5020452;28;45520;-69
2022/10/12 05:55:26;;;;;;;;;37.00;32.33;;;;;;;;5020433;28;45421;-69
2022/10/12 05:57:52;;;;;;;;;41.67;34.67;;;;;;;;5020302;28;45377;-69
2022/10/12 06:00:17;;;;;;;;;40.67;37.33;;;;;;;;5020350;28;45403;-69
2022/10/12 06:02:42;;;;;;;;;38.33;33.33;;;;;;;;5019372;28;45674;-69
2022/10/12 06:05:08;;;;;;;;;42.33;36.00;;;;;;;;5020177;28;45467;-69
2022/10/12 06:07:33;;;;;;;;;36.00;34.00;;;;;;;;5019859;28;47338;-69
2022/10/12 06:09:59;;;;;;;;;44.00;34.67;;;;;;;;5019715;28;45608;-68
2022/10/12 06:12:25;;;;;;;;;33.67;30.67;;;;;;;;5020297;28;45355;-68
2022/10/12 06:14:51;;;;;;;;;29.00;27.67;;;;;;;;5020076;28;45464;-68
2022/10/12 06:17:16;;;;;;;;;39.67;34.00;;;;;;;;5019407;28;45829;-67
2022/10/12 06:19:41;;;;;;;;;37.67;34.00;;;;;;;;5018824;28;45297;-68
2022/10/12 06:22:06;;;;;;;;;35.67;34.00;;;;;;;;5019377;28;45297;-67
2022/10/12 06:24:31;;;;;;;;;21.33;20.67;;;;;;;;5020425;28;45275;-67
2022/10/12 06:26:57;;;;;;;;;41.33;33.67;;;;;;;;5019830;28;46576;-67
2022/10/12 06:29:22;;;;;;;;;37.33;34.33;;;;;;;;5018760;28;45637;-67
2022/10/12 06:31:48;;;;;;;;;38.67;34.00;;;;;;;;5018439;28;45428;-67
2022/10/12 06:34:13;;;;;;;;;53.00;36.33;;;;;;;;5019527;28;45335;-67
2022/10/12 06:36:39;;;;;;;;;40.67;35.33;;;;;;;;5019485;28;46140;-67
2022/10/12 06:39:04;;;;;;;;;35.00;30.67;;;;;;;;5017410;28;45448;-67
2022/10/12 06:41:29;;;;;;;;;47.67;39.33;;;;;;;;5019839;28;45333;-69
2022/10/12 06:43:54;;;;;;;;;43.00;36.00;;;;;;;;5019707;28;45632;-69
2022/10/12 06:46:19;;;;;;;;;45.00;39.33;;;;;;;;5019379;28;46457;-69
2022/10/12 06:48:45;;;;;;;;;44.33;39.33;;;;;;;;5019670;28;45393;-69
2022/10/12 06:51:10;;;;;;;;;47.33;38.33;;;;;;;;5018646;28;45488;-69
2022/10/12 06:53:35;;;;;;;;;43.67;36.00;;;;;;;;5019815;28;45283;-69
2022/10/12 06:56:10;;;;;;;;;50.00;37.00;;;;;;;;5019152;28;45395;-69
2022/10/12 06:58:35;;;;;;;;;53.00;43.33;;;;;;;;5018063;28;45361;-70
2022/10/12 07:01:02;;;;;;;;;51.00;40.33;;;;;;;;5019130;28;45225;-69
2022/10/12 07:03:27;;;;;;;;;54.33;42.67;;;;;;;;5019659;28;45435;-69
2022/10/12 07:05:53;;;;;;;;;47.67;39.00;;;;;;;;5018927;28;46173;-69
2022/10/12 07:08:18;;;;;;;;;51.00;38.67;;;;;;;;5019432;28;45412;-69
2022/10/12 07:10:43;;;;;;;;;46.33;37.00;;;;;;;;5019498;28;45368;-69
2022/10/12 07:13:08;;;;;;;;;39.33;35.00;;;;;;;;5019596;28;45431;-69
2022/10/12 07:15:33;;;;;;;;;49.33;38.00;;;;;;;;5019001;28;46118;-69
2022/10/12 07:17:59;;;;;;;;;41.67;34.00;;;;;;;;5019095;28;45432;-69
2022/10/12 07:20:24;;;;;;;;;44.67;35.00;;;;;;;;5019113;28;45535;-69
2022/10/12 07:22:51;;;;;;;;;42.67;34.00;;;;;;;;5019138;28;45353;-66
2022/10/12 07:25:16;;;;;;;;;46.33;37.67;;;;;;;;5019076;28;45459;-67
2022/10/12 07:27:41;;;;;;;;;39.33;36.00;;;;;;;;5018883;28;45402;-70
2022/10/12 07:30:07;;;;;;;;;42.00;34.33;;;;;;;;5018671;28;45419;-70
2022/10/12 07:32:32;;;;;;;;;41.67;34.67;;;;;;;;5018992;28;45402;-70
2022/10/12 07:34:57;;;;;;;;;41.33;34.00;;;;;;;;5018720;28;45458;-70
2022/10/12 07:37:22;;;;;;;;;42.33;36.33;;;;;;;;5018822;28;45389;-70
2022/10/12 07:39:48;;;;;;;;;46.67;38.00;;;;;;;;5018646;28;45453;-70
2022/10/12 07:42:13;;;;;;;;;45.33;36.00;;;;;;;;5018915;28;45422;-70
2022/10/12 07:44:38;;;;;;;;;48.67;40.00;;;;;;;;5018434;28;46744;-70
2022/10/12 07:47:04;;;;;;;;;48.33;36.67;;;;;;;;5018352;28;45271;-70
2022/10/12 07:49:29;;;;;;;;;55.00;42.00;;;;;;;;5018666;28;45330;-70
2022/10/12 07:51:54;;;;;;;;;45.67;39.00;;;;;;;;5018719;28;45316;-70
2022/10/12 07:54:19;;;;;;;;;51.00;40.00;;;;;;;;5018341;28;46407;-76
2022/10/12 07:56:45;;;;;;;;;48.33;39.33;;;;;;;;5018474;28;45323;-73
2022/10/12 07:59:11;;;;;;;;;44.67;37.67;;;;;;;;5018621;28;45595;-74
2022/10/12 08:01:36;;;;;;;;;48.67;39.33;;;;;;;;5018653;28;45374;-73
2022/10/12 08:04:01;;;;;;;;;49.67;37.33;;;;;;;;5018321;28;46482;-72
2022/10/12 08:06:28;;;;;;;;;56.00;41.00;;;;;;;;5018160;28;45477;-72
2022/10/12 08:08:53;;;;;;;;;66.67;52.33;;;;;;;;5018220;28;45254;-72
2022/10/12 08:11:19;;;;;;;;;62.33;49.00;;;;;;;;5018341;28;45253;-72
2022/10/12 08:13:44;;;;;;;;;72.00;52.33;;;;;;;;5017972;28;46045;-72
2022/10/12 08:16:15;;;;;;;;;79.75;64.50;;;;;;;;5018147;28;45661;-72
2022/10/12 08:18:40;;;;;;;;;98.25;84.75;;;;;;;;5018181;28;45362;-72
2022/10/12 08:21:07;;;;;;;;;83.50;68.50;;;;;;;;5018125;28;45422;-73
2022/10/12 08:23:33;;;;;;;;;66.67;50.67;;;;;;;;5017879;28;46501;-73
2022/10/12 08:25:58;;;;;;;;;65.00;49.33;;;;;;;;5018088;28;45386;-73
2022/10/12 08:28:24;;;;;;;;;56.67;45.00;;;;;;;;5017704;28;45437;-72
2022/10/12 08:30:49;;;;;;;;;51.67;42.00;;;;;;;;5017961;28;45377;-73
2022/10/12 08:33:15;;;;;;;;;50.00;41.33;;;;;;;;5017940;28;45357;-73
2022/10/12 08:35:41;;;;;;;;;49.00;39.67;;;;;;;;5017756;28;45482;-73
2022/10/12 08:38:06;;;;;;;;;55.33;43.00;;;;;;;;5017897;28;45223;-72
2022/10/12 08:40:34;;;;;;;;;50.67;40.00;;;;;;;;5018125;28;45473;-73
2022/10/12 08:43:10;;;;;;;;;51.00;41.00;;;;;;;;5017436;28;47505;-73
2022/10/12 08:45:45;;;;;;;;;47.33;35.00;;;;;;;;5017612;28;45423;-73
2022/10/12 08:48:13;;;;;;;;;43.00;34.67;;;;;;;;5017869;28;45324;-73
2022/10/12 08:50:41;;;;;;;;;44.00;34.33;;;;;;;;5017881;28;45391;-74
2022/10/12 08:53:14;;;;;;;;;36.33;31.33;;;;;;;;5017357;28;46686;-73
2022/10/12 08:55:42;;;;;;;;;40.00;32.33;;;;;;;;5017198;28;45291;-73
2022/10/12 08:58:13;;;;;;;;;47.33;36.33;;;;;;;;5017507;28;45359;-71
2022/10/12 09:00:39;;;;;;;;;41.33;36.00;;;;;;;;5017706;28;45453;-72
2022/10/12 09:03:07;;;;;;;;;39.33;32.00;;;;;;;;5017353;28;47248;-72
2022/10/12 09:05:36;;;;;;;;;42.00;33.00;;;;;;;;5017235;28;45441;-72
2022/10/12 09:08:05;;;;;;;;;43.00;34.67;;;;;;;;5017478;28;45418;-72
2022/10/12 09:10:43;;;;;;;;;41.33;34.67;;;;;;;;5017468;28;45334;-72
2022/10/12 09:13:30;;;;;;;;;46.00;35.67;;;;;;;;5016678;28;47440;-72
2022/10/12 09:15:58;;;;;;;;;46.00;36.00;;;;;;;;5017329;28;45761;-72
2022/10/12 09:18:40;;;;;;;;;50.67;39.67;;;;;;;;5017312;28;45314;-71
2022/10/12 09:21:07;;;;;;;;;57.00;45.33;;;;;;;;5017114;28;45438;-72
2022/10/12 09:23:36;;;;;;;;;41.67;35.67;;;;;;;;5017132;28;46604;-72
2022/10/12 09:26:15;;;;;;;;;44.33;34.33;;;;;;;;5017031;28;45357;-72
2022/10/12 09:28:49;;;;;;;;;38.00;31.67;;;;;;;;5016900;28;45441;-72
2022/10/12 09:31:27;;;;;;;;;44.00;37.00;;;;;;;;5017037;28;45632;-73
2022/10/12 09:33:54;;;;;;;;;41.67;35.00;;;;;;;;5016943;28;46411;-72
2022/10/12 09:36:21;;;;;;;;;44.00;35.33;;;;;;;;5016899;28;45503;-73
2022/10/12 09:38:47;;;;;;;;;46.00;36.00;;;;;;;;5017090;28;45251;-72
2022/10/12 09:41:18;;;;;;;;;40.00;32.67;;;;;;;;5017150;28;45163;-72
2022/10/12 09:43:44;;;;;;;;;32.67;31.67;;;;;;;;5016663;28;46381;-73
2022/10/12 09:46:13;;;;;;;;;42.67;32.00;;;;;;;;5017084;28;45743;-72
2022/10/12 09:48:54;;;;;;;;;41.00;34.33;;;;;;;;5016868;28;45457;-72
2022/10/12 09:51:20;;;;;;;;;47.00;39.00;;;;;;;;5016900;28;45463;-72
2022/10/12 09:53:47;;;;;;;;;48.50;38.00;;;;;;;;5016779;28;46398;-71
2022/10/12 09:56:21;;;;;;;;;46.33;37.00;;;;;;;;5016696;28;45238;-71
2022/10/12 09:58:51;;;;;;;;;46.33;38.00;;;;;;;;5016655;28;45240;-72
2022/10/12 10:01:20;;;;;;;;;51.67;42.33;;;;;;;;5016754;28;45548;-72
2022/10/12 10:03:46;;;;;;;;;38.00;35.00;;;;;;;;5016543;28;46490;-76
2022/10/12 10:06:14;;;;;;;;;37.33;34.67;;;;;;;;5016593;28;45298;-75
2022/10/12 10:08:43;;;;;;;;;38.00;31.67;;;;;;;;5016488;28;45444;-76
2022/10/12 10:11:20;;;;;;;;;32.00;29.33;;;;;;;;5016684;28;45403;-76
2022/10/12 10:13:47;;;;;;;;;33.67;28.67;;;;;;;;5016159;28;46495;-73
2022/10/12 10:16:13;;;;;;;;;34.00;31.00;;;;;;;;5016646;28;45270;-74
2022/10/12 10:18:41;;;;;;;;;35.33;31.33;;;;;;;;5016375;28;45157;-72
2022/10/12 10:21:08;;;;;;;;;33.00;29.67;;;;;;;;5016922;28;45429;-72
2022/10/12 10:23:36;;;;;;;;;38.00;34.00;;;;;;;;5016125;28;46733;-72
2022/10/12 10:26:06;;;;;;;;;37.00;31.67;;;;;;;;5017328;28;45267;-72
2022/10/12 10:28:32;;;;;;;;;31.33;26.00;;;;;;;;5019754;28;45366;-72
2022/10/12 10:30:58;;;;;;;;;36.00;30.00;;;;;;;;5019875;28;45429;-72
2022/10/12 10:33:23;;;;;;;;;25.33;22.67;;;;;;;;5019678;28;45377;-73
2022/10/12 10:35:53;;;;;;;;;16.67;16.67;;;;;;;;5019847;28;45433;-72
2022/10/12 10:38:19;;;;;;;;;20.33;14.00;;;;;;;;5019609;28;45432;-72
2022/10/12 10:40:49;;;;;;;;;23.33;20.33;;;;;;;;5019907;28;45452;-71
2022/10/12 10:43:24;;;;;;;;;17.67;15.67;;;;;;;;5019542;28;46694;-72
2022/10/12 10:45:52;;;;;;;;;19.67;18.00;;;;;;;;5019558;28;45233;-72
2022/10/12 10:48:19;;;;;;;;;20.33;17.33;;;;;;;;5019660;28;45215;-72
2022/10/12 10:50:50;;;;;;;;;23.67;21.67;;;;;;;;5019801;28;45271;-72
2022/10/12 10:53:20;;;;;;;;;23.00;20.33;;;;;;;;5019045;28;45552;-72
2022/10/12 10:55:57;;;;;;;;;23.00;20.67;;;;;;;;5019422;28;45757;-72
2022/10/12 10:58:37;;;;;;;;;18.00;16.00;;;;;;;;5019527;28;45323;-72
2022/10/12 11:01:10;;;;;;;;;22.00;18.00;;;;;;;;5018141;28;45487;-72
2022/10/12 11:03:38;;;;;;;;;22.00;17.67;;;;;;;;5019181;28;45210;-72
2022/10/12 11:06:17;;;;;;;;;21.67;17.33;;;;;;;;5019234;28;45610;-72
2022/10/12 11:08:43;;;;;;;;;20.67;16.67;;;;;;;;5018982;28;45512;-72
2022/10/12 11:11:14;;;;;;;;;12.00;12.00;;;;;;;;5019727;28;45402;-72
2022/10/12 11:13:45;;;;;;;;;19.00;17.67;;;;;;;;5019095;28;46251;-72
2022/10/12 11:16:13;;;;;;;;;13.67;13.33;;;;;;;;5019158;28;45312;-72
2022/10/12 11:18:44;;;;;;;;;9.67;9.00;;;;;;;;5019037;28;45557;-72
2022/10/12 11:21:19;;;;;;;;;11.33;7.00;;;;;;;;5019478;28;45215;-73
2022/10/12 11:23:49;;;;;;;;;12.00;9.00;;;;;;;;5018806;28;46301;-72
2022/10/12 11:26:15;;;;;;;;;9.50;6.00;;;;;;;;5019068;28;45405;-71
2022/10/12 11:28:40;;;;;;;;;15.67;15.67;;;;;;;;5016870;28;45664;-72
2022/10/12 11:31:12;;;;;;;;;9.75;8.00;;;;;;;;5018128;28;45544;-68
2022/10/12 11:33:39;;;;;;;;;9.00;7.00;;;;;;;;4999065;28;46575;-68
2022/10/12 11:36:06;;;;;;;;;5.67;5.67;;;;;;;;4998884;28;45467;-73
2022/10/12 11:38:37;;;;;;;;;12.00;6.33;;;;;;;;4998582;28;45298;-72
2022/10/12 11:41:13;;;;;;;;;11.67;10.00;;;;;;;;4999449;28;45390;-72
2022/10/12 11:43:43;;;;;;;;;18.00;11.67;;;;;;;;4998659;28;46385;-71
2022/10/12 11:46:12;;;;;;;;;23.67;19.00;;;;;;;;4998769;28;45331;-72
2022/10/12 11:48:45;;;;;;;;;20.00;12.00;;;;;;;;4999021;28;45254;-72
2022/10/12 11:51:11;;;;;;;;;13.00;11.67;;;;;;;;4999003;28;45347;-72
2022/10/12 11:53:55;;;;;;;;;12.67;11.33;;;;;;;;4998566;28;46235;-72
2022/10/12 11:56:20;;;;;;;;;13.67;13.33;;;;;;;;4998481;28;45270;-72
2022/10/12 11:58:47;;;;;;;;;11.00;9.67;;;;;;;;4998784;28;45349;-72
2022/10/12 12:01:13;;;;;;;;;18.00;12.67;;;;;;;;4999051;28;45239;-73
2022/10/12 12:03:44;;;;;;;;;16.00;15.00;;;;;;;;4998773;28;46370;-72
2022/10/12 12:06:27;;;;;;;;;15.33;13.67;;;;;;;;4998637;28;45403;-72
2022/10/12 12:08:52;;;;;;;;;11.67;10.67;;;;;;;;4998546;28;45334;-72
2022/10/12 12:11:20;;;;;;;;;13.33;12.33;;;;;;;;4998719;28;45539;-72
2022/10/12 12:13:45;;;;;;;;;14.00;12.67;;;;;;;;4998479;28;46270;-72
2022/10/12 12:16:10;;;;;;;;;16.67;12.33;;;;;;;;4998563;28;45301;-72
2022/10/12 12:18:54;;;;;;;;;17.00;13.00;;;;;;;;4998607;28;45238;-72
2022/10/12 12:21:19;;;;;;;;;12.00;10.00;;;;;;;;4998791;28;45520;-72
2022/10/12 12:23:54;;;;;;;;;14.00;10.67;;;;;;;;4998017;28;45354;-71
2022/10/12 12:26:21;;;;;;;;;14.33;12.00;;;;;;;;4998339;28;45176;-72
2022/10/12 12:28:48;;;;;;;;;10.33;8.67;;;;;;;;4998200;28;45449;-72
2022/10/12 12:31:13;;;;;;;;;11.33;11.33;;;;;;;;4998434;28;45333;-72
2022/10/12 12:33:41;;;;;;;;;18.67;11.33;;;;;;;;4998129;28;45305;-72
2022/10/12 12:36:06;;;;;;;;;11.67;11.67;;;;;;;;4998161;28;45368;-71
2022/10/12 12:38:36;;;;;;;;;11.50;9.50;;;;;;;;4997991;28;45354;-72
2022/10/12 12:41:04;;;;;;;;;7.67;7.67;;;;;;;;4998534;28;45444;-72
2022/10/12 12:43:29;;;;;;;;;3.75;3.00;;;;;;;;4997998;28;47436;-72
2022/10/12 12:46:13;;;;;;;;;9.75;6.75;;;;;;;;4998021;28;45282;-72
2022/10/12 12:48:41;;;;;;;;;6.75;5.00;;;;;;;;4997331;28;45427;-71
2022/10/12 12:51:13;;;;;;;;;5.00;3.75;;;;;;;;4998298;28;45436;-72
2022/10/12 12:53:41;;;;;;;;;5.50;4.00;;;;;;;;4997752;28;46453;-71
2022/10/12 12:56:25;;;;;;;;;7.00;4.25;;;;;;;;4997772;28;45432;-72
2022/10/12 12:59:10;;;;;;;;;10.33;7.00;;;;;;;;4998029;28;45434;-72
2022/10/12 13:01:54;;;;;;;;;5.00;5.00;;;;;;;;4998231;28;45379;-72
2022/10/12 13:04:25;;;;;;;;;4.00;4.00;;;;;;;;4997881;28;46456;-72
2022/10/12 13:06:53;;;;;;;;;5.33;4.67;;;;;;;;4997722;28;45297;-73
2022/10/12 13:09:37;;;;;;;;;4.00;3.75;;;;;;;;4997776;28;45225;-72
2022/10/12 13:12:08;;;;;;;;;5.00;3.75;;;;;;;;4998174;28;45385;-72
2022/10/12 13:14:56;;;;;;;;;5.25;3.50;;;;;;;;4997648;28;45667;-72
2022/10/12 13:17:24;;;;;;;;;6.25;6.25;;;;;;;;4997777;28;45220;-72
2022/10/12 13:19:52;;;;;;;;;7.00;7.00;;;;;;;;4997594;28;45502;-73
2022/10/12 13:22:24;;;;;;;;;2.75;2.75;;;;;;;;4997848;28;45432;-72
2022/10/12 13:24:52;;;;;;;;;3.00;1.00;;;;;;;;4997330;28;47154;-72
2022/10/12 13:27:32;;;;;;;;;4.00;2.00;;;;;;;;4997392;28;45271;-73
2022/10/12 13:30:10;;;;;;;;;5.00;4.00;;;;;;;;4997308;28;45195;-72
2022/10/12 13:32:46;;;;;;;;;3.75;3.75;;;;;;;;4997772;28;45429;-71
2022/10/12 13:35:28;;;;;;;;;2.00;2.00;;;;;;;;4997447;28;46627;-73
2022/10/12 13:38:18;;;;;;;;;2.50;2.50;;;;;;;;4997428;28;45229;-72
2022/10/12 13:40:50;;;;;;;;;3.00;2.00;;;;;;;;4997485;28;45390;-72
2022/10/12 13:43:35;;;;;;;;;2.00;2.00;;;;;;;;4997461;28;45436;-73
2022/10/12 13:46:01;;;;;;;;;3.00;3.00;;;;;;;;4996930;28;46583;-71
2022/10/12 13:48:27;;;;;;;;;3.00;3.00;;;;;;;;4997241;28;45236;-73
2022/10/12 13:50:54;;;;;;;;;7.67;6.00;;;;;;;;4997360;28;45413;-72
2022/10/12 13:53:19;;;;;;;;;5.00;3.25;;;;;;;;4997237;28;45448;-72
2022/10/12 13:55:56;;;;;;;;;2.50;1.00;;;;;;;;4997131;28;46337;-72
2022/10/12 13:58:23;;;;;;;;;2.25;2.00;;;;;;;;4996996;28;45205;-72
2022/10/12 14:00:48;;;;;;;;;3.00;1.75;;;;;;;;4999448;28;45249;-68
2022/10/12 14:03:13;;;;;;;;;3.00;3.00;;;;;;;;5000919;28;45209;-72
2022/10/12 14:05:43;;;;;;;;;5.00;3.75;;;;;;;;5000403;28;45221;-75
2022/10/12 14:08:13;;;;;;;;;2.00;2.00;;;;;;;;5000428;28;45507;-73
2022/10/12 14:10:40;;;;;;;;;10.33;6.67;;;;;;;;5000639;28;45252;-72
2022/10/12 14:13:08;;;;;;;;;5.75;3.50;;;;;;;;5000695;28;45340;-72
2022/10/12 14:15:34;;;;;;;;;2.50;2.50;;;;;;;;5000209;28;46999;-73
2022/10/12 14:18:00;;;;;;;;;5.00;2.00;;;;;;;;4999830;28;45313;-73
2022/10/12 14:20:25;;;;;;;;;3.25;3.25;;;;;;;;5000274;28;45174;-72
2022/10/12 14:22:50;;;;;;;;;4.00;3.00;;;;;;;;5000647;28;45206;-72
2022/10/12 14:25:18;;;;;;;;;6.75;5.75;;;;;;;;4999911;28;46780;-72